Time;durP1;ratioP1;P1;durP2;ratioP2;P2;SDS_P1;SDS_P2;PMS_P1;PMS_P2;Temp;Humidity;BMP_temperature;BMP_pressure;BME280_temperature;BME280_humidity;BME280_pressure;Samples;Min_cycle;Max_cycle;Signal;HPM_P1;HPM_P2
2023/07/12 03:01:11;;;;;;;113.43;106.38;;;18.90;99.90;;;;;;5527783;23;20258;-70
2023/07/12 03:03:37;;;;;;;130.90;123.47;;;18.90;99.90;;;;;;4912743;29;20332;-70
2023/07/12 03:06:07;;;;;;;132.88;124.70;;;18.90;99.90;;;;;;4912444;29;20190;-71
2023/07/12 03:08:33;;;;;;;152.43;143.07;;;18.90;99.90;;;;;;4914541;29;20223;-70
2023/07/12 03:10:59;;;;;;;152.88;142.63;;;18.90;99.90;;;;;;4909525;29;20297;-70
2023/07/12 03:13:25;;;;;;;168.07;157.25;;;18.80;99.90;;;;;;4933757;23;20238;-68
2023/07/12 03:15:51;;;;;;;156.85;146.75;;;18.80;99.90;;;;;;4895986;29;20187;-69
2023/07/12 03:18:16;;;;;;;149.80;140.70;;;18.80;99.90;;;;;;4906520;29;20187;-69
2023/07/12 03:20:42;;;;;;;145.77;137.15;;;18.80;99.90;;;;;;4914489;29;20246;-69
2023/07/12 03:23:08;;;;;;;133.30;125.32;;;18.80;99.90;;;;;;4917422;29;20195;-69
2023/07/12 03:25:34;;;;;;;127.25;120.07;;;18.90;99.90;;;;;;4918685;29;20595;-69
2023/07/12 03:28:00;;;;;;;100.53;94.85;;;18.90;99.90;;;;;;4895053;29;20256;-69
2023/07/12 03:30:25;;;;;;;105.32;98.80;;;18.80;99.90;;;;;;4896503;29;20195;-70
2023/07/12 03:32:51;;;;;;;97.15;91.53;;;18.80;99.90;;;;;;4902511;29;20217;-70
2023/07/12 03:35:17;;;;;;;128.88;121.75;;;18.80;99.90;;;;;;4915749;29;20672;-70
2023/07/12 03:37:43;;;;;;;125.68;119.03;;;18.80;99.90;;;;;;4915334;29;20230;-69
2023/07/12 03:40:09;;;;;;;105.38;99.32;;;18.80;99.90;;;;;;4914030;29;20218;-69
2023/07/12 03:42:35;;;;;;;104.05;97.55;;;18.80;99.90;;;;;;4916058;29;20195;-69
2023/07/12 03:45:01;;;;;;;83.13;78.32;;;18.80;99.90;;;;;;4916761;29;20262;-69
2023/07/12 03:47:27;;;;;;;83.90;78.72;;;18.80;99.90;;;;;;4901531;29;20191;-69
2023/07/12 03:49:53;;;;;;;77.97;73.43;;;18.80;99.90;;;;;;4918577;29;20279;-70
2023/07/12 03:52:20;;;;;;;96.53;90.85;;;18.80;99.90;;;;;;4921513;29;20202;-70
2023/07/12 03:54:45;;;;;;;99.95;94.35;;;18.70;99.90;;;;;;4904767;29;20305;-70
2023/07/12 03:57:11;;;;;;;80.43;75.68;;;18.70;99.90;;;;;;4908352;29;20359;-69
2023/07/12 03:59:37;;;;;;;72.60;68.68;;;18.80;99.90;;;;;;4909514;29;20206;-68
2023/07/12 04:02:03;;;;;;;96.72;91.32;;;18.70;99.90;;;;;;4914183;29;20692;-70
2023/07/12 04:04:28;;;;;;;70.07;66.22;;;18.70;99.90;;;;;;4914001;29;20218;-69
2023/07/12 04:06:54;;;;;;;88.53;84.07;;;18.80;99.90;;;;;;4913758;29;20685;-69
2023/07/12 04:09:20;;;;;;;114.43;107.78;;;18.80;99.90;;;;;;4914153;29;20187;-69
2023/07/12 04:11:45;;;;;;;107.00;100.35;;;18.80;99.90;;;;;;4913829;29;20218;-69
2023/07/12 04:14:11;;;;;;;88.07;82.97;;;18.80;99.90;;;;;;4897323;29;20250;-69
2023/07/12 04:16:37;;;;;;;79.88;74.82;;;18.90;99.90;;;;;;4913896;29;20206;-70
2023/07/12 04:19:03;;;;;;;89.70;83.85;;;18.90;99.90;;;;;;4913517;29;20191;-69
2023/07/12 04:21:29;;;;;;;113.03;106.25;;;19.00;99.90;;;;;;4913988;29;20218;-69
2023/07/12 04:23:54;;;;;;;119.18;111.80;;;19.10;99.90;;;;;;4914034;29;20218;-69
2023/07/12 04:26:21;;;;;;;119.68;111.93;;;19.10;99.90;;;;;;4913561;29;20191;-69
2023/07/12 04:28:50;;;;;;;122.00;113.93;;;19.10;99.90;;;;;;4913763;29;20606;-69
2023/07/12 04:31:18;;;;;;;120.88;113.43;;;19.10;99.90;;;;;;4914046;29;20294;-69
2023/07/12 04:33:46;;;;;;;58.53;54.38;;;19.10;99.90;;;;;;4915141;29;20261;-68
2023/07/12 04:36:13;;;;;;;64.40;60.58;;;19.20;99.90;;;;;;4917872;29;20229;-69
2023/07/12 04:38:39;;;;;;;80.72;76.03;;;19.20;99.90;;;;;;4917156;29;20235;-69
2023/07/12 04:41:07;;;;;;;91.63;85.85;;;19.30;99.90;;;;;;4900915;29;20230;-70
2023/07/12 04:43:32;;;;;;;100.88;94.25;;;19.30;99.90;;;;;;4917821;29;20218;-72
2023/07/12 04:45:59;;;;;;;103.60;96.90;;;19.30;99.90;;;;;;4914441;29;20187;-73
2023/07/12 04:48:25;;;;;;;99.90;94.47;;;19.40;99.90;;;;;;4893439;29;20191;-73
2023/07/12 04:50:54;;;;;;;96.07;90.72;;;19.50;99.90;;;;;;4897071;29;20184;-73
2023/07/12 04:53:22;;;;;;;89.78;84.38;;;19.60;99.90;;;;;;4914212;29;20845;-73
2023/07/12 04:55:50;;;;;;;104.25;98.93;;;19.70;99.90;;;;;;4916961;29;20203;-73
2023/07/12 04:58:16;;;;;;;65.03;61.42;;;19.90;99.90;;;;;;4916775;29;20738;-73
2023/07/12 05:00:43;;;;;;;25.23;23.55;;;20.00;99.90;;;;;;4900232;29;20219;-73
2023/07/12 05:03:09;;;;;;;116.22;109.03;;;20.10;99.90;;;;;;4916474;29;20730;-72
2023/07/12 05:05:38;;;;;;;23.63;22.05;;;20.40;99.90;;;;;;4915788;29;20285;-72
2023/07/12 05:08:05;;;;;;;64.25;60.25;;;20.40;99.90;;;;;;4916246;29;20214;-76
2023/07/12 05:10:32;;;;;;;97.63;92.45;;;20.40;99.90;;;;;;4900826;29;20195;-75
2023/07/12 05:12:58;;;;;;;54.75;51.78;;;20.40;99.90;;;;;;4915801;29;20213;-75
2023/07/12 05:15:24;;;;;;;37.47;35.38;;;20.30;99.90;;;;;;4916612;29;20710;-76
2023/07/12 05:17:50;;;;;;;23.75;22.15;;;20.40;99.90;;;;;;4916941;29;20191;-76
2023/07/12 05:20:16;;;;;;;26.17;24.42;;;20.40;99.90;;;;;;4900370;29;20206;-76
2023/07/12 05:22:43;;;;;;;36.30;34.05;;;20.40;99.90;;;;;;4917181;29;20554;-74
2023/07/12 05:25:09;;;;;;;36.72;34.47;;;20.30;99.90;;;;;;4900102;29;20215;-74
2023/07/12 05:27:36;;;;;;;32.55;30.60;;;20.40;99.90;;;;;;4916746;29;20194;-75
2023/07/12 05:30:02;;;;;;;23.23;21.70;;;20.40;99.90;;;;;;4917390;29;20559;-75
2023/07/12 05:32:28;;;;;;;82.20;77.60;;;20.50;99.90;;;;;;4900229;29;20328;-75
2023/07/12 05:34:54;;;;;;;451.55;423.13;;;20.50;99.90;;;;;;4916731;29;20218;-74
2023/07/12 05:37:19;;;;;;;261.48;246.57;;;20.70;99.90;;;;;;4916544;29;20191;-75
2023/07/12 05:39:45;;;;;;;115.97;109.63;;;20.80;99.90;;;;;;4899944;29;20201;-75
2023/07/12 05:42:11;;;;;;;56.45;53.45;;;20.90;99.90;;;;;;4899837;29;20225;-75
2023/07/12 05:44:37;;;;;;;57.50;54.15;;;21.10;99.90;;;;;;4899502;29;20313;-75
2023/07/12 05:47:03;;;;;;;132.90;125.10;;;21.20;99.90;;;;;;4916342;29;20269;-74
2023/07/12 05:49:29;;;;;;;83.65;79.13;;;21.50;99.90;;;;;;4899508;29;20239;-75
2023/07/12 05:51:54;;;;;;;28.23;26.10;;;21.60;99.90;;;;;;4916707;29;20187;-75
2023/07/12 05:54:20;;;;;;;33.47;31.45;;;21.70;99.90;;;;;;4899705;29;20221;-75
2023/07/12 05:56:46;;;;;;;31.77;29.60;;;21.80;99.90;;;;;;4899793;29;20671;-74
2023/07/12 05:59:11;;;;;;;19.75;18.15;;;21.80;99.90;;;;;;4916363;29;20206;-74
2023/07/12 06:01:37;;;;;;;80.43;76.35;;;21.90;99.90;;;;;;4916297;29;20306;-75
2023/07/12 06:04:03;;;;;;;80.35;76.13;;;21.90;99.90;;;;;;4916309;29;20211;-75
2023/07/12 06:06:29;;;;;;;124.10;117.40;;;22.00;99.90;;;;;;4899402;29;20334;-75
2023/07/12 06:08:55;;;;;;;139.32;132.13;;;22.00;99.90;;;;;;4915843;29;20205;-75
2023/07/12 06:11:20;;;;;;;95.05;90.03;;;22.10;99.90;;;;;;4916269;29;20191;-75
2023/07/12 06:13:46;;;;;;;39.25;36.95;;;22.20;99.90;;;;;;4916017;29;20623;-74
2023/07/12 06:16:12;;;;;;;30.50;28.63;;;22.40;99.90;;;;;;4916042;29;20674;-74
2023/07/12 06:18:38;;;;;;;139.77;131.82;;;22.60;99.90;;;;;;4915469;29;20202;-75
2023/07/12 06:21:08;;;;;;;227.73;215.25;;;22.90;99.90;;;;;;4915986;29;20695;-75
2023/07/12 06:23:34;;;;;;;199.48;188.45;;;23.20;99.90;;;;;;4915899;29;20211;-74
2023/07/12 06:25:59;;;;;;;270.05;254.85;;;23.40;99.90;;;;;;4915967;29;20195;-74
2023/07/12 06:28:26;;;;;;;165.85;157.18;;;23.60;99.90;;;;;;4915421;29;20211;-75
2023/07/12 06:30:52;;;;;;;187.05;176.73;;;23.50;99.90;;;;;;4915882;29;20734;-74
2023/07/12 06:33:18;;;;;;;218.18;206.73;;;23.60;99.90;;;;;;4915865;29;20282;-74
2023/07/12 06:35:44;;;;;;;240.10;227.13;;;23.50;99.90;;;;;;4915750;29;20612;-75
2023/07/12 06:38:09;;;;;;;256.73;243.15;;;23.50;99.90;;;;;;4915306;29;20254;-75
2023/07/12 06:40:37;;;;;;;243.57;230.57;;;23.70;99.90;;;;;;4915577;29;20219;-75
2023/07/12 06:43:03;;;;;;;181.02;171.18;;;23.70;99.90;;;;;;4898880;29;20251;-75
2023/07/12 06:45:28;;;;;;;212.07;200.55;;;23.80;99.90;;;;;;4899658;29;20191;-75
2023/07/12 06:47:54;;;;;;;124.78;117.63;;;23.90;99.90;;;;;;4915173;29;20198;-75
2023/07/12 06:50:20;;;;;;;79.80;75.47;;;24.10;99.90;;;;;;4915641;29;20201;-75
2023/07/12 06:52:46;;;;;;;91.68;86.63;;;24.10;99.90;;;;;;4898863;29;20194;-75
2023/07/12 06:55:11;;;;;;;131.75;124.78;;;24.10;99.90;;;;;;4915457;29;20442;-75
2023/07/12 06:57:37;;;;;;;125.10;118.72;;;24.00;99.90;;;;;;4914808;29;20311;-76
2023/07/12 07:00:06;;;;;;;124.18;116.88;;;23.90;99.90;;;;;;4915758;29;20648;-74
2023/07/12 07:02:33;;;;;;;124.95;117.93;;;23.70;99.90;;;;;;4915425;29;20566;-76
2023/07/12 07:04:59;;;;;;;112.88;106.72;;;23.60;99.90;;;;;;4915831;29;20203;-75
2023/07/12 07:07:25;;;;;;;159.45;150.82;;;23.60;99.90;;;;;;4898179;29;20250;-75
2023/07/12 07:09:50;;;;;;;241.75;228.18;;;23.70;99.90;;;;;;4915343;29;20546;-75
2023/07/12 07:12:16;;;;;;;157.75;148.95;;;24.20;99.90;;;;;;4915408;29;20663;-75
2023/07/12 07:14:42;;;;;;;187.05;177.00;;;24.70;99.90;;;;;;4890722;29;20598;-75
2023/07/12 07:17:08;;;;;;;69.85;65.60;;;25.10;99.90;;;;;;4915119;29;20285;-75
2023/07/12 07:19:34;;;;;;;37.78;35.55;;;25.80;99.90;;;;;;4915248;29;20199;-75
2023/07/12 07:22:00;;;;;;;13.82;12.75;;;26.80;99.90;;;;;;4898236;29;20267;-75
2023/07/12 07:24:26;;;;;;;15.63;12.52;;;27.40;99.90;;;;;;4914944;29;20202;-75
2023/07/12 07:26:51;;;;;;;18.23;16.95;;;27.50;99.90;;;;;;4914716;29;20311;-75
2023/07/12 07:29:17;;;;;;;21.92;20.42;;;27.40;99.90;;;;;;4898046;29;20187;-75
2023/07/12 07:31:43;;;;;;;18.38;16.73;;;27.20;99.90;;;;;;4915008;29;20202;-75
2023/07/12 07:34:09;;;;;;;10.70;9.32;;;27.10;99.90;;;;;;4914914;29;20405;-75
2023/07/12 07:36:35;;;;;;;8.98;7.95;;;27.20;99.90;;;;;;4914796;29;20201;-75
2023/07/12 07:39:01;;;;;;;9.18;6.30;;;27.50;99.90;;;;;;4897687;29;20197;-75
2023/07/12 07:41:27;;;;;;;9.85;8.98;;;27.50;99.90;;;;;;4914725;29;20222;-75
2023/07/12 07:43:53;;;;;;;13.50;12.25;;;27.60;99.90;;;;;;4914647;29;20214;-75
2023/07/12 07:46:19;;;;;;;10.70;9.68;;;28.00;99.90;;;;;;4915134;29;20226;-75
2023/07/12 07:48:45;;;;;;;13.98;7.90;;;28.10;99.90;;;;;;4914321;29;20625;-75
2023/07/12 07:51:12;;;;;;;32.45;30.42;;;28.40;99.90;;;;;;4897830;29;20254;-75
2023/07/12 07:53:39;;;;;;;22.92;21.38;;;28.50;99.90;;;;;;4914455;29;20211;-74
2023/07/12 07:56:05;;;;;;;13.02;8.75;;;28.60;99.90;;;;;;4916013;29;20195;-77
2023/07/12 07:58:31;;;;;;;9.02;8.13;;;28.60;99.90;;;;;;4897223;29;20571;-74
2023/07/12 08:00:57;;;;;;;9.60;8.73;;;28.40;99.90;;;;;;4898143;29;20235;-77
2023/07/12 08:03:23;;;;;;;7.65;6.75;;;28.00;99.90;;;;;;4914596;29;20587;-74
2023/07/12 08:05:49;;;;;;;14.43;7.28;;;28.00;99.90;;;;;;4914427;29;20714;-74
2023/07/12 08:08:15;;;;;;;11.05;8.85;;;28.30;99.90;;;;;;4897886;29;20569;-75
2023/07/12 08:10:41;;;;;;;12.77;10.98;;;28.60;99.90;;;;;;4918390;29;20652;-75
2023/07/12 08:13:07;;;;;;;8.30;7.50;;;28.80;99.90;;;;;;4918425;29;20191;-74
2023/07/12 08:15:34;;;;;;;13.25;12.25;;;28.90;99.90;;;;;;4901542;29;20198;-74
2023/07/12 08:18:01;;;;;;;20.77;19.48;;;29.00;99.90;;;;;;4918648;29;20199;-74
2023/07/12 08:20:27;;;;;;;62.10;58.67;;;29.40;99.90;;;;;;4918299;29;20285;-75
2023/07/12 08:24:03;;;;;;;27.70;26.00;;;29.70;99.90;;;;;;5061054;27;1367560;-75
2023/07/12 08:26:29;;;;;;;14.30;13.20;;;30.00;99.90;;;;;;5088180;28;20192;-76
2023/07/12 08:28:55;;;;;;;11.60;10.77;;;30.30;99.90;;;;;;5088030;28;20549;-74
2023/07/12 08:31:20;;;;;;;13.43;12.38;;;30.40;99.90;;;;;;5088433;28;20452;-74
2023/07/12 08:33:47;;;;;;;38.53;36.42;;;30.70;99.90;;;;;;5088213;28;20490;-74
2023/07/12 08:36:13;;;;;;;50.17;47.58;;;30.80;99.90;;;;;;5084517;22;20230;-83
2023/07/12 08:38:39;;;;;;;37.38;35.25;;;30.80;99.90;;;;;;5068981;28;20202;-83
2023/07/12 08:41:16;;;;;;;11.70;10.70;;;30.90;99.90;;;;;;5073923;28;20194;-82
2023/07/12 08:43:42;;;;;;;14.23;13.13;;;30.70;99.90;;;;;;5050455;28;20217;-82
2023/07/12 08:46:18;;;;;;;10.25;9.27;;;30.90;99.90;;;;;;5052186;28;20209;-83
2023/07/12 08:48:44;;;;;;;20.08;18.88;;;31.00;99.90;;;;;;5054200;28;20216;-83
2023/07/12 08:51:19;;;;;;;15.93;14.98;;;31.00;99.90;;;;;;5068227;28;20194;-83
2023/07/12 08:53:45;;;;;;;13.73;12.85;;;31.00;99.90;;;;;;5061431;28;20228;-83
2023/07/12 08:56:14;;;;;;;25.80;24.15;;;30.40;99.90;;;;;;5060053;28;20210;-82
2023/07/12 08:58:51;;;;;;;18.13;16.95;;;30.10;99.90;;;;;;5059656;28;20332;-82
2023/07/12 09:01:48;;;;;;;22.92;21.67;;;30.20;99.90;;;;;;5059420;28;20190;-82
2023/07/12 09:04:25;;;;;;;27.00;25.50;;;29.30;99.90;;;;;;5058815;28;20609;-82
2023/07/12 09:06:56;;;;;;;27.67;26.13;;;28.50;99.90;;;;;;5058651;28;20206;-81
2023/07/12 09:09:22;;;;;;;56.13;53.13;;;28.00;99.90;;;;;;5058855;28;20206;-81
2023/07/12 09:11:48;;;;;;;125.75;119.05;;;27.80;99.90;;;;;;5059408;28;20673;-82
2023/07/12 09:14:20;;;;;;;126.55;120.00;;;27.80;99.90;;;;;;5058694;28;20190;-81
2023/07/12 09:16:48;;;;;;;98.40;93.13;;;28.00;99.90;;;;;;5069877;28;20210;-82
2023/07/12 09:19:27;;;;;;;48.20;45.40;;;28.50;99.90;;;;;;5070587;28;20233;-81
2023/07/12 09:22:09;;;;;;;58.58;55.08;;;28.50;99.90;;;;;;5053591;28;20194;-82
2023/07/12 09:24:42;;;;;;;21.38;20.00;;;29.10;99.90;;;;;;5060145;28;20245;-81
2023/07/12 09:27:24;;;;;;;15.40;14.13;;;29.60;99.90;;;;;;5059123;28;20193;-81
2023/07/12 09:30:06;;;;;;;15.07;14.25;;;29.70;99.90;;;;;;5058670;28;20261;-81
2023/07/12 09:32:36;;;;;;;28.13;26.23;;;29.60;99.90;;;;;;5057705;28;20218;-81
2023/07/12 09:35:21;;;;;;;34.67;32.65;;;30.00;99.90;;;;;;5046706;28;20325;-81
2023/07/12 09:37:59;;;;;;;38.63;36.22;;;30.00;99.90;;;;;;5045943;28;20197;-81
2023/07/12 09:40:29;;;;;;;21.52;20.23;;;30.40;99.90;;;;;;5044764;28;20229;-81
2023/07/12 09:43:03;;;;;;;21.15;19.85;;;31.50;99.90;;;;;;5050502;28;20694;-81
2023/07/12 09:45:33;;;;;;;38.42;36.28;;;31.90;99.90;;;;;;5046140;28;20264;-81
2023/07/12 09:48:08;;;;;;;102.00;96.63;;;32.20;99.90;;;;;;5047203;28;20195;-81
2023/07/12 09:50:42;;;;;;;36.10;33.92;;;31.80;99.90;;;;;;5046480;28;20194;-80
2023/07/12 09:53:15;;;;;;;25.67;23.70;;;31.10;99.90;;;;;;5046191;28;20257;-80
2023/07/12 09:56:18;;;;;;;18.65;17.55;;;30.50;99.90;;;;;;5046944;28;20219;-80
2023/07/12 09:59:01;;;;;;;30.58;28.85;;;29.70;99.90;;;;;;5044205;28;20202;-80
2023/07/12 10:01:36;;;;;;;69.20;65.65;;;28.90;99.90;;;;;;5045344;28;20585;-79
2023/07/12 10:04:22;;;;;;;36.70;34.75;;;28.50;99.90;;;;;;5046445;28;20222;-79
2023/07/12 10:06:51;;;;;;;33.67;31.48;;;28.40;99.90;;;;;;5045734;28;20275;-79
2023/07/12 10:09:22;;;;;;;32.47;30.77;;;29.10;99.90;;;;;;5046205;28;20250;-79
2023/07/12 10:11:56;;;;;;;10.20;9.45;;;29.90;99.90;;;;;;5045909;28;20259;-79
2023/07/12 10:14:31;;;;;;;14.10;13.18;;;30.30;99.90;;;;;;5049322;28;20654;-79
2023/07/12 10:16:57;;;;;;;54.72;51.70;;;30.90;99.90;;;;;;5036622;28;20268;-79
2023/07/12 10:19:28;;;;;;;35.13;33.17;;;30.60;99.90;;;;;;5038762;28;20194;-79
2023/07/12 10:21:57;;;;;;;65.13;61.72;;;30.60;99.90;;;;;;5041958;28;20658;-79
2023/07/12 10:24:35;;;;;;;77.82;73.85;;;31.00;99.90;;;;;;5034509;28;20183;-79
2023/07/12 10:27:04;;;;;;;84.55;80.15;;;30.70;99.90;;;;;;5033842;28;20748;-79
2023/07/12 10:29:42;;;;;;;116.10;109.90;;;31.20;99.90;;;;;;5034844;28;20277;-79
2023/07/12 10:32:18;;;;;;;82.00;77.65;;;30.50;99.90;;;;;;5037157;28;20653;-78
2023/07/12 10:35:05;;;;;;;22.48;20.92;;;29.70;99.90;;;;;;5038290;28;20217;-78
2023/07/12 10:37:52;;;;;;;24.95;23.35;;;29.50;99.90;;;;;;5036418;28;20195;-78
2023/07/12 10:40:35;;;;;;;72.47;68.72;;;30.50;99.90;;;;;;5042526;28;20244;-78
2023/07/12 10:43:06;;;;;;;32.75;30.95;;;30.50;99.90;;;;;;5047581;28;20222;-78
2023/07/12 10:45:36;;;;;;;65.20;61.65;;;30.00;99.90;;;;;;5043606;28;20211;-79
2023/07/12 10:48:04;;;;;;;97.47;92.53;;;30.50;99.90;;;;;;5043640;28;20234;-79
2023/07/12 10:50:37;;;;;;;90.38;85.57;;;30.90;99.90;;;;;;5043148;28;20616;-79
2023/07/12 10:53:13;;;;;;;41.28;39.13;;;31.20;99.90;;;;;;5042587;28;20612;-79
2023/07/12 10:55:46;;;;;;;30.80;29.15;;;31.60;99.90;;;;;;5052127;28;20479;-78
2023/07/12 10:58:14;;;;;;;113.45;107.65;;;30.50;99.90;;;;;;5046905;28;20194;-78
2023/07/12 11:01:17;;;;;;;75.88;72.03;;;30.30;99.90;;;;;;5053237;28;20187;-79
2023/07/12 11:03:47;;;;;;;6.15;5.65;;;31.30;99.90;;;;;;5044468;28;20214;-79
2023/07/12 11:06:26;;;;;;;11.43;10.30;;;31.10;99.90;;;;;;5046576;28;20297;-79
2023/07/12 11:09:01;;;;;;;110.63;105.10;;;30.40;99.90;;;;;;5045562;28;20190;-78
2023/07/12 11:11:39;;;;;;;31.35;29.52;;;29.80;99.90;;;;;;5045407;28;20190;-78
2023/07/12 11:14:17;;;;;;;13.10;12.20;;;29.50;99.90;;;;;;5047061;28;20194;-78
2023/07/12 11:17:09;;;;;;;31.98;29.95;;;29.90;99.90;;;;;;5046914;28;20534;-79
2023/07/12 11:19:44;;;;;;;70.00;66.47;;;30.40;99.90;;;;;;5043143;28;20191;-78
2023/07/12 11:22:21;;;;;;;78.72;74.60;;;30.60;99.90;;;;;;5042400;28;20668;-78
2023/07/12 11:24:52;;;;;;;41.33;39.10;;;31.40;99.90;;;;;;5044006;28;20580;-77
2023/07/12 11:27:44;;;;;;;74.43;70.45;;;31.30;99.90;;;;;;5043164;28;20202;-77
2023/07/12 11:30:13;;;;;;;112.07;106.63;;;30.60;99.90;;;;;;5023933;28;20289;-77
2023/07/12 11:32:40;;;;;;;55.38;52.40;;;29.90;99.90;;;;;;5036835;28;20605;-77
2023/07/12 11:35:15;;;;;;;59.97;56.78;;;29.70;99.90;;;;;;5034550;28;20226;-77
2023/07/12 11:37:48;;;;;;;7.80;7.10;;;31.20;99.90;;;;;;5038325;28;20731;-78
2023/07/12 11:40:19;;;;;;;6.75;5.93;;;32.60;99.90;;;;;;5038552;28;20285;-77
2023/07/12 11:42:45;;;;;;;5.95;5.35;;;33.50;99.50;;;;;;5038196;28;20309;-78
2023/07/12 11:45:14;;;;;;;8.80;8.27;;;34.20;98.60;;;;;;5041281;28;20223;-77
2023/07/12 11:47:53;;;;;;;7.00;6.50;;;34.10;99.40;;;;;;5043281;28;20194;-77
2023/07/12 11:50:27;;;;;;;6.72;6.30;;;34.40;98.80;;;;;;5035889;28;20183;-77
2023/07/12 11:52:55;;;;;;;7.32;6.68;;;34.50;95.40;;;;;;5036082;28;20769;-77
2023/07/12 11:55:25;;;;;;;7.60;7.07;;;34.40;96.00;;;;;;5035752;28;20561;-77
2023/07/12 11:57:51;;;;;;;7.10;6.40;;;35.00;96.70;;;;;;5034816;28;20195;-78
2023/07/12 12:00:19;;;;;;;6.63;6.07;;;35.60;92.30;;;;;;5036307;28;20221;-77
2023/07/12 12:02:50;;;;;;;18.55;17.48;;;36.40;93.00;;;;;;5040556;28;20215;-78
2023/07/12 12:05:21;;;;;;;12.50;11.40;;;36.10;92.00;;;;;;5041739;28;20214;-78
2023/07/12 12:07:48;;;;;;;24.75;23.40;;;35.60;89.10;;;;;;5040842;28;20543;-78
2023/07/12 12:10:27;;;;;;;7.72;7.20;;;35.10;90.60;;;;;;5038299;28;20251;-78
2023/07/12 12:12:53;;;;;;;7.45;6.75;;;35.00;92.90;;;;;;5040481;28;20190;-78
2023/07/12 12:15:25;;;;;;;9.90;9.13;;;35.10;91.90;;;;;;5039711;28;20217;-77
2023/07/12 12:17:53;;;;;;;8.32;7.50;;;34.90;92.10;;;;;;5040896;28;20187;-77
2023/07/12 12:20:28;;;;;;;6.07;5.55;;;34.50;90.10;;;;;;5036415;28;20666;-78
2023/07/12 12:23:15;;;;;;;7.82;7.22;;;34.30;90.80;;;;;;5037406;28;20241;-77
2023/07/12 12:25:49;;;;;;;9.38;8.68;;;34.80;92.40;;;;;;5029886;28;20686;-77
2023/07/12 12:28:31;;;;;;;8.40;7.80;;;34.60;90.20;;;;;;5033596;28;20343;-77
2023/07/12 12:31:05;;;;;;;7.07;6.57;;;34.60;92.60;;;;;;5029524;28;20334;-77
2023/07/12 12:33:31;;;;;;;8.43;7.93;;;34.80;91.70;;;;;;5030851;28;20198;-76
2023/07/12 12:36:00;;;;;;;9.80;7.05;;;34.50;88.90;;;;;;5030746;28;20225;-77
2023/07/12 12:38:35;;;;;;;9.75;6.03;;;34.10;91.50;;;;;;5030318;28;20274;-79
2023/07/12 12:41:12;;;;;;;6.57;6.07;;;33.70;91.80;;;;;;5035115;28;20245;-78
2023/07/12 12:43:57;;;;;;;5.82;5.43;;;33.70;90.80;;;;;;5038779;28;20245;-79
2023/07/12 12:46:23;;;;;;;6.75;5.63;;;33.00;86.60;;;;;;5030045;28;20215;-79
2023/07/12 12:48:51;;;;;;;5.80;5.47;;;33.70;83.30;;;;;;5033983;28;20202;-79
2023/07/12 12:51:18;;;;;;;7.38;6.90;;;34.90;80.60;;;;;;5035443;28;20213;-77
2023/07/12 12:53:44;;;;;;;8.50;7.88;;;35.50;78.90;;;;;;5030812;28;20706;-76
2023/07/12 12:56:13;;;;;;;6.18;5.47;;;36.40;75.80;;;;;;5039385;28;20234;-78
2023/07/12 12:58:39;;;;;;;9.35;8.60;;;36.80;74.60;;;;;;5030487;28;20270;-76
2023/07/12 13:01:05;;;;;;;7.93;5.80;;;35.90;73.20;;;;;;5030695;28;20215;-78
2023/07/12 13:03:31;;;;;;;6.20;5.05;;;35.60;74.70;;;;;;5046272;28;20233;-76
2023/07/12 13:05:57;;;;;;;8.15;6.53;;;35.30;74.20;;;;;;5030377;28;20230;-78
2023/07/12 13:08:23;;;;;;;8.43;7.72;;;34.90;74.00;;;;;;5033341;28;20222;-76
2023/07/12 13:10:49;;;;;;;10.85;10.15;;;35.10;74.40;;;;;;5033615;28;20214;-78
2023/07/12 13:13:20;;;;;;;10.18;8.82;;;34.50;74.80;;;;;;5035941;28;20297;-76
2023/07/12 13:15:47;;;;;;;11.63;10.93;;;35.00;74.70;;;;;;5032921;28;20219;-76
2023/07/12 13:18:14;;;;;;;13.02;12.23;;;35.60;73.90;;;;;;5040454;28;20186;-76
2023/07/12 13:20:40;;;;;;;10.65;9.85;;;36.40;72.90;;;;;;5039255;28;20348;-76
2023/07/12 13:23:11;;;;;;;8.25;7.65;;;36.40;70.40;;;;;;5033821;28;20309;-77
2023/07/12 13:25:40;;;;;;;9.55;8.57;;;36.20;71.40;;;;;;5032643;28;20207;-77
2023/07/12 13:28:13;;;;;;;12.68;11.48;;;35.60;70.70;;;;;;5034763;28;20186;-77
2023/07/12 13:30:39;;;;;;;10.82;10.00;;;34.90;73.90;;;;;;5033869;28;20187;-77
2023/07/12 13:33:13;;;;;;;10.30;9.40;;;34.50;74.00;;;;;;5033820;28;20666;-77
2023/07/12 13:35:39;;;;;;;9.85;8.15;;;35.20;73.20;;;;;;5033894;28;20244;-77
2023/07/12 13:38:10;;;;;;;8.55;7.95;;;36.20;71.80;;;;;;5033769;28;20186;-77
2023/07/12 13:40:36;;;;;;;15.13;13.98;;;36.50;70.00;;;;;;5033752;28;20210;-77
2023/07/12 13:43:02;;;;;;;6.85;6.32;;;36.00;69.80;;;;;;5032273;28;20202;-77
2023/07/12 13:45:28;;;;;;;12.73;11.73;;;34.90;72.20;;;;;;5033401;28;20206;-77
2023/07/12 13:47:54;;;;;;;11.13;10.32;;;34.40;73.10;;;;;;5033262;28;20278;-76
2023/07/12 13:50:20;;;;;;;5.32;4.70;;;33.60;74.20;;;;;;5034517;28;20278;-78
2023/07/12 13:52:46;;;;;;;8.38;7.57;;;33.70;76.40;;;;;;5037714;28;20189;-77
2023/07/12 13:55:17;;;;;;;11.07;10.15;;;34.60;73.50;;;;;;5039547;28;20223;-77
2023/07/12 13:57:46;;;;;;;6.15;5.68;;;35.70;71.10;;;;;;5033164;28;20286;-77
2023/07/12 14:00:18;;;;;;;10.45;9.45;;;36.20;69.10;;;;;;5039051;28;20701;-78
2023/07/12 14:02:44;;;;;;;71.55;68.05;;;36.50;68.40;;;;;;5041127;28;20206;-78
2023/07/12 14:05:12;;;;;;;55.80;53.00;;;36.80;67.60;;;;;;5044073;28;20214;-79
2023/07/12 14:07:40;;;;;;;14.77;13.88;;;36.20;68.60;;;;;;5040254;28;20199;-79
2023/07/12 14:10:12;;;;;;;8.73;6.97;;;35.30;70.00;;;;;;5044282;28;20183;-79
2023/07/12 14:12:38;;;;;;;14.90;13.90;;;34.90;69.50;;;;;;5042901;28;20197;-78
2023/07/12 14:15:04;;;;;;;6.60;5.78;;;33.90;71.90;;;;;;5042018;28;20242;-78
2023/07/12 14:17:32;;;;;;;7.25;6.65;;;33.20;74.10;;;;;;5041707;28;20541;-78
2023/07/12 14:20:00;;;;;;;8.75;8.02;;;34.20;73.40;;;;;;5042348;28;20201;-78
2023/07/12 14:22:30;;;;;;;5.78;5.18;;;34.50;72.90;;;;;;5042355;28;20777;-78
2023/07/12 14:24:57;;;;;;;6.72;6.22;;;33.50;73.20;;;;;;5041312;28;20210;-78
2023/07/12 14:27:29;;;;;;;15.15;14.07;;;32.50;75.30;;;;;;5040561;28;20179;-78
2023/07/12 14:29:57;;;;;;;6.78;6.20;;;31.90;77.50;;;;;;5049757;28;20194;-78
2023/07/12 14:32:30;;;;;;;6.10;5.70;;;31.90;78.00;;;;;;5035762;28;20186;-78
2023/07/12 14:37:24;;;;;;;7.95;7.32;;;31.40;78.60;;;;;;5028717;28;20223;-72
2023/07/12 14:39:50;;;;;;;7.50;6.78;;;31.00;80.10;;;;;;5014667;28;20198;-72
2023/07/12 14:42:28;;;;;;;9.50;8.95;;;30.50;81.70;;;;;;5014546;28;20297;-72
2023/07/12 14:44:57;;;;;;;9.70;9.18;;;30.30;82.90;;;;;;5032411;28;20222;-72
2023/07/12 14:47:24;;;;;;;5.75;5.20;;;30.60;82.50;;;;;;5012775;28;20179;-72
2023/07/12 14:49:51;;;;;;;8.40;7.85;;;31.70;79.80;;;;;;5012334;28;20690;-72
2023/07/12 14:52:25;;;;;;;6.70;6.30;;;32.60;77.40;;;;;;5012459;28;20303;-72
2023/07/12 14:54:54;;;;;;;7.32;5.93;;;32.50;76.90;;;;;;5012726;28;20281;-72
2023/07/12 14:57:20;;;;;;;6.20;5.15;;;32.40;77.60;;;;;;5011821;28;20267;-71
2023/07/12 14:59:48;;;;;;;5.20;4.47;;;32.60;77.30;;;;;;5012325;28;20250;-72
2023/07/12 15:02:28;;;;;;;9.63;9.02;;;33.10;76.20;;;;;;5011925;28;20203;-72
2023/07/12 15:04:56;;;;;;;7.68;7.18;;;33.70;75.10;;;;;;5012669;28;20245;-72
2023/07/12 15:07:25;;;;;;;4.70;4.30;;;34.70;72.70;;;;;;4994346;28;20188;-72
2023/07/12 15:09:52;;;;;;;5.50;4.75;;;35.10;70.30;;;;;;5012131;28;20211;-72
2023/07/12 15:12:30;;;;;;;7.20;6.00;;;34.40;71.10;;;;;;5011921;28;20208;-72
2023/07/12 15:15:01;;;;;;;6.65;6.15;;;35.00;70.30;;;;;;4994235;28;20199;-72
2023/07/12 15:17:26;;;;;;;6.25;5.85;;;34.60;69.40;;;;;;5011535;28;20221;-72
2023/07/12 15:19:53;;;;;;;8.48;7.70;;;33.20;72.10;;;;;;5011874;28;20278;-72
2023/07/12 15:22:21;;;;;;;6.13;5.55;;;31.80;75.70;;;;;;5011309;28;20214;-72
2023/07/12 15:24:47;;;;;;;5.88;4.35;;;31.00;77.60;;;;;;5014944;28;20190;-72
2023/07/12 15:27:15;;;;;;;9.35;8.65;;;32.00;78.30;;;;;;5031157;28;20337;-72
2023/07/12 15:29:41;;;;;;;9.85;9.02;;;32.60;74.20;;;;;;5031419;28;20263;-72
2023/07/12 15:32:12;;;;;;;10.25;9.35;;;32.80;74.20;;;;;;5031083;28;20191;-72
2023/07/12 15:34:38;;;;;;;11.07;8.52;;;32.60;73.70;;;;;;5031307;28;20195;-72
2023/07/12 15:37:15;;;;;;;6.30;5.80;;;31.90;75.40;;;;;;5031021;28;20241;-72
2023/07/12 15:39:45;;;;;;;6.93;6.40;;;31.10;77.50;;;;;;5013749;28;20194;-72
2023/07/12 15:42:16;;;;;;;6.30;5.28;;;30.40;77.90;;;;;;5031544;28;20211;-71